Time;durP1;ratioP1;P1;durP2;ratioP2;P2;SDS_P1;SDS_P2;PMS_P1;PMS_P2;Temp;Humidity;BMP_temperature;BMP_pressure;BME280_temperature;BME280_humidity;BME280_pressure;Samples;Min_cycle;Max_cycle;Signal;HPM_P1;HPM_P2
2022/08/20 00:00:17;;;;;;;3.47;2.25;;;21.20;60.80;;;;;;4990465;28;20109;-75
2022/08/20 00:02:45;;;;;;;4.90;2.70;;;21.20;61.00;;;;;;5020876;28;20045;-74
2022/08/20 00:05:10;;;;;;;3.70;2.70;;;21.10;61.10;;;;;;5006666;28;20040;-73
2022/08/20 00:07:36;;;;;;;3.42;2.72;;;21.10;61.30;;;;;;5023424;28;20039;-75
2022/08/20 00:10:02;;;;;;;3.80;2.90;;;21.00;61.40;;;;;;5004619;28;20045;-74
2022/08/20 00:12:28;;;;;;;4.78;3.13;;;21.00;61.50;;;;;;5040569;28;20124;-75
2022/08/20 00:14:53;;;;;;;3.25;2.60;;;21.00;61.70;;;;;;5009099;28;20489;-74
2022/08/20 00:17:19;;;;;;;2.92;2.63;;;20.90;61.80;;;;;;5006468;28;20085;-73
2022/08/20 00:19:44;;;;;;;3.55;2.50;;;20.90;61.80;;;;;;5005685;28;20094;-74
2022/08/20 00:22:10;;;;;;;4.60;2.63;;;20.90;61.90;;;;;;5021864;28;20119;-73
2022/08/20 00:24:36;;;;;;;3.80;3.00;;;20.80;61.80;;;;;;5006105;28;20033;-74
2022/08/20 00:27:01;;;;;;;3.42;2.80;;;20.80;62.00;;;;;;5022508;28;20371;-74
2022/08/20 00:29:27;;;;;;;3.53;2.78;;;20.80;62.10;;;;;;5040894;28;20032;-74
2022/08/20 00:31:52;;;;;;;5.97;3.40;;;20.70;62.00;;;;;;5024935;28;20556;-74
2022/08/20 00:34:18;;;;;;;3.50;3.20;;;20.70;62.10;;;;;;5008123;28;20040;-75
2022/08/20 00:36:43;;;;;;;2.72;2.53;;;20.70;62.30;;;;;;5025142;28;20128;-75
2022/08/20 00:39:09;;;;;;;3.33;3.00;;;20.60;62.50;;;;;;5038237;28;20033;-75
2022/08/20 00:41:34;;;;;;;3.33;3.03;;;20.60;62.70;;;;;;5001697;28;20044;-74
2022/08/20 00:44:10;;;;;;;4.93;2.67;;;20.60;62.80;;;;;;5004609;28;20083;-74
2022/08/20 00:46:35;;;;;;;3.15;2.83;;;20.50;63.10;;;;;;5004273;28;20040;-75
2022/08/20 00:49:04;;;;;;;4.10;3.20;;;20.40;63.00;;;;;;5003353;28;20032;-74
2022/08/20 00:51:37;;;;;;;6.78;2.80;;;20.40;63.20;;;;;;5005934;28;20603;-75
2022/08/20 00:54:17;;;;;;;4.18;3.10;;;20.30;63.40;;;;;;5006408;28;20564;-73
2022/08/20 00:56:44;;;;;;;3.38;2.90;;;20.20;63.60;;;;;;5005897;28;20032;-74
2022/08/20 00:59:14;;;;;;;4.47;3.00;;;20.20;63.60;;;;;;5002898;28;20116;-74
2022/08/20 01:01:39;;;;;;;4.70;2.95;;;20.10;64.60;;;;;;4987173;28;20036;-74
2022/08/20 01:04:05;;;;;;;3.80;3.10;;;20.10;63.90;;;;;;5001323;28;20524;-75
2022/08/20 01:06:31;;;;;;;3.00;2.70;;;20.10;64.00;;;;;;5020857;28;20515;-74
2022/08/20 01:09:00;;;;;;;2.92;2.65;;;20.00;64.00;;;;;;5003887;28;20032;-73
2022/08/20 01:11:32;;;;;;;3.10;2.80;;;20.10;64.00;;;;;;5020752;28;20040;-74
2022/08/20 01:13:59;;;;;;;3.67;3.03;;;20.00;64.00;;;;;;4989041;28;20040;-75
2022/08/20 01:16:27;;;;;;;3.42;2.90;;;20.00;64.00;;;;;;5004775;28;20524;-73
2022/08/20 01:18:53;;;;;;;3.53;2.70;;;20.00;64.10;;;;;;5004400;28;20036;-73
2022/08/20 01:21:27;;;;;;;3.28;2.97;;;20.00;64.00;;;;;;5023061;28;20029;-73
2022/08/20 01:24:11;;;;;;;3.67;3.28;;;20.00;64.00;;;;;;5004791;28;20029;-74
2022/08/20 01:26:41;;;;;;;5.00;3.00;;;20.10;64.30;;;;;;5036509;28;20494;-74
2022/08/20 01:29:19;;;;;;;3.67;2.75;;;20.00;64.00;;;;;;5006683;28;20033;-74
2022/08/20 01:31:44;;;;;;;4.28;3.28;;;20.00;64.10;;;;;;5001910;28;20040;-75
2022/08/20 01:34:12;;;;;;;4.45;3.33;;;20.00;64.00;;;;;;5005584;28;20044;-75
2022/08/20 01:36:41;;;;;;;3.63;2.88;;;20.00;64.20;;;;;;5004342;28;20041;-74
2022/08/20 01:39:09;;;;;;;3.20;3.00;;;20.00;64.20;;;;;;5002950;28;20041;-73
2022/08/20 01:41:46;;;;;;;3.88;2.78;;;19.90;64.20;;;;;;4990535;28;20044;-74
2022/08/20 01:44:12;;;;;;;3.25;2.95;;;19.90;64.30;;;;;;5037797;28;20040;-74
2022/08/20 01:46:39;;;;;;;2.75;2.50;;;19.90;64.40;;;;;;5010516;28;20037;-73
2022/08/20 01:49:28;;;;;;;3.45;3.08;;;19.90;64.40;;;;;;5006986;28;20566;-73
2022/08/20 01:51:56;;;;;;;3.47;3.17;;;19.90;65.30;;;;;;5019111;28;20053;-74
2022/08/20 01:54:21;;;;;;;3.00;2.80;;;19.90;64.20;;;;;;5023497;28;20029;-73
2022/08/20 01:56:54;;;;;;;6.30;3.45;;;19.90;64.30;;;;;;5009119;28;20119;-74
2022/08/20 01:59:19;;;;;;;3.45;3.15;;;19.80;64.40;;;;;;5006513;28;20033;-74
2022/08/20 02:01:45;;;;;;;4.55;3.42;;;19.80;64.30;;;;;;5024574;28;20046;-73
2022/08/20 02:04:10;;;;;;;5.82;3.22;;;19.80;64.20;;;;;;5024021;28;20041;-74
2022/08/20 02:06:42;;;;;;;4.20;3.80;;;19.80;64.30;;;;;;5024763;28;20044;-74
2022/08/20 02:09:08;;;;;;;3.70;3.40;;;19.80;64.40;;;;;;5039779;28;20033;-74
2022/08/20 02:11:33;;;;;;;3.78;3.47;;;19.80;64.40;;;;;;5008177;28;20056;-74
2022/08/20 02:13:59;;;;;;;3.97;3.67;;;19.80;64.50;;;;;;4994036;28;20037;-75
2022/08/20 02:16:29;;;;;;;6.13;3.13;;;19.80;64.50;;;;;;5010941;28;20033;-73
2022/08/20 02:18:58;;;;;;;6.27;4.40;;;19.70;64.60;;;;;;5022484;28;20036;-74
2022/08/20 02:21:26;;;;;;;3.30;3.03;;;19.70;64.60;;;;;;5023455;28;20486;-73
2022/08/20 02:23:52;;;;;;;3.63;3.33;;;19.70;64.60;;;;;;4990472;28;20033;-73
2022/08/20 02:26:18;;;;;;;3.08;2.83;;;19.70;64.70;;;;;;5011975;28;20044;-75
2022/08/20 02:28:50;;;;;;;3.90;3.60;;;19.70;64.70;;;;;;5009500;28;20060;-74
2022/08/20 02:31:19;;;;;;;3.42;3.13;;;19.70;64.80;;;;;;5008743;28;20037;-74
2022/08/20 02:33:44;;;;;;;4.40;3.63;;;19.60;64.60;;;;;;5011927;28;21041;-75
2022/08/20 02:36:11;;;;;;;5.40;3.92;;;19.70;64.70;;;;;;5041629;28;20490;-73
2022/08/20 02:38:40;;;;;;;3.47;3.20;;;19.70;64.80;;;;;;4995341;28;20160;-73
2022/08/20 02:41:06;;;;;;;4.35;3.42;;;19.60;64.70;;;;;;5006938;28;20581;-75
2022/08/20 02:43:32;;;;;;;5.22;3.60;;;19.60;64.70;;;;;;5022237;28;20033;-74
2022/08/20 02:45:58;;;;;;;4.00;3.60;;;19.60;64.80;;;;;;5023116;28;20048;-74
2022/08/20 02:48:24;;;;;;;3.72;3.42;;;19.60;64.80;;;;;;5023303;28;20042;-74
2022/08/20 02:50:53;;;;;;;6.25;3.47;;;19.50;64.90;;;;;;5024283;28;20186;-73
2022/08/20 02:53:19;;;;;;;4.22;3.83;;;19.50;65.00;;;;;;4969710;28;20036;-74
2022/08/20 02:55:45;;;;;;;4.60;3.85;;;19.50;65.00;;;;;;4992287;28;20048;-74
2022/08/20 02:58:10;;;;;;;4.50;4.10;;;19.50;65.10;;;;;;5022712;28;20817;-73
2022/08/20 03:00:36;;;;;;;3.75;3.42;;;19.50;65.20;;;;;;5038729;28;20040;-74
2022/08/20 03:03:02;;;;;;;4.40;4.00;;;19.50;65.40;;;;;;5022753;28;20045;-74
2022/08/20 03:05:27;;;;;;;4.18;3.80;;;19.50;65.40;;;;;;5007892;28;20040;-73
2022/08/20 03:07:55;;;;;;;7.05;4.78;;;19.40;65.40;;;;;;5026939;28;20095;-72
2022/08/20 03:10:23;;;;;;;7.65;4.25;;;19.40;66.20;;;;;;5024656;28;20120;-73
2022/08/20 03:12:48;;;;;;;4.43;4.03;;;19.40;65.40;;;;;;5024315;28;20090;-74
2022/08/20 03:15:14;;;;;;;5.55;4.32;;;19.40;65.50;;;;;;5023281;28;20037;-75
2022/08/20 03:17:39;;;;;;;5.18;4.32;;;19.30;65.50;;;;;;5027849;28;20053;-74
2022/08/20 03:20:06;;;;;;;6.30;3.90;;;19.30;65.60;;;;;;5020096;28;20033;-74
2022/08/20 03:22:32;;;;;;;5.00;3.47;;;19.40;65.70;;;;;;5003232;28;20049;-74
2022/08/20 03:24:58;;;;;;;4.72;3.90;;;19.30;65.60;;;;;;5023263;28;20098;-73
2022/08/20 03:27:23;;;;;;;6.88;4.07;;;19.30;66.00;;;;;;5024548;28;20032;-74
2022/08/20 03:29:49;;;;;;;5.32;3.95;;;19.30;66.00;;;;;;5022494;28;20036;-74
2022/08/20 03:32:14;;;;;;;3.95;3.63;;;19.20;66.20;;;;;;5022665;28;20041;-74
2022/08/20 03:34:40;;;;;;;4.43;4.03;;;19.20;66.40;;;;;;5007178;28;20457;-74
2022/08/20 03:37:05;;;;;;;5.82;4.03;;;19.20;66.40;;;;;;5021271;28;20075;-74
2022/08/20 03:39:31;;;;;;;3.85;3.50;;;19.20;66.50;;;;;;5021702;28;20057;-74
2022/08/20 03:41:56;;;;;;;5.47;4.05;;;19.10;66.60;;;;;;5006055;28;20049;-73
2022/08/20 03:44:22;;;;;;;5.22;3.97;;;19.10;66.60;;;;;;5024067;28;20041;-73
2022/08/20 03:46:48;;;;;;;4.60;4.20;;;19.20;66.70;;;;;;4993576;28;20029;-74
2022/08/20 03:49:13;;;;;;;7.38;5.00;;;19.10;66.80;;;;;;5022493;28;20028;-73
2022/08/20 03:51:39;;;;;;;4.00;3.53;;;19.10;67.00;;;;;;5021657;28;20127;-73
2022/08/20 03:54:04;;;;;;;4.40;4.00;;;19.10;67.00;;;;;;5037842;28;20030;-73
2022/08/20 03:56:30;;;;;;;3.92;3.55;;;19.10;67.10;;;;;;5022665;28;20117;-74
2022/08/20 03:58:56;;;;;;;6.90;4.00;;;19.00;67.10;;;;;;4988986;28;20072;-74
2022/08/20 04:01:21;;;;;;;4.30;3.90;;;19.00;67.10;;;;;;4990752;28;20032;-75
2022/08/20 04:03:47;;;;;;;3.63;3.15;;;19.00;67.20;;;;;;5006829;28;20682;-74
2022/08/20 04:06:12;;;;;;;5.22;4.30;;;19.00;67.10;;;;;;5022624;28;20032;-73
2022/08/20 04:08:40;;;;;;;4.95;3.65;;;19.00;67.10;;;;;;5004544;28;20120;-74
2022/08/20 04:11:05;;;;;;;5.55;4.10;;;19.00;67.60;;;;;;5034600;28;20033;-74
2022/08/20 04:13:31;;;;;;;9.65;3.92;;;18.90;67.20;;;;;;5017619;28;20033;-73
2022/08/20 04:15:59;;;;;;;8.82;4.55;;;18.90;67.10;;;;;;5007574;28;20715;-74
2022/08/20 04:18:25;;;;;;;5.88;4.07;;;18.90;67.20;;;;;;5022180;28;20041;-73
2022/08/20 04:20:51;;;;;;;6.60;4.43;;;18.90;67.20;;;;;;5004001;28;20048;-73
2022/08/20 04:23:16;;;;;;;5.95;3.85;;;18.90;67.30;;;;;;5007008;28;20029;-74
2022/08/20 04:25:42;;;;;;;7.13;4.10;;;18.80;67.20;;;;;;5017679;28;20119;-72
2022/08/20 04:28:11;;;;;;;5.45;3.92;;;18.80;67.20;;;;;;5002581;28;20179;-73
2022/08/20 04:30:36;;;;;;;5.13;4.03;;;18.80;67.40;;;;;;5006846;28;20042;-74
2022/08/20 04:33:02;;;;;;;5.07;3.80;;;18.80;67.30;;;;;;5021266;28;20031;-74
2022/08/20 04:35:28;;;;;;;4.97;4.43;;;18.80;67.40;;;;;;5022708;28;20032;-74
2022/08/20 04:38:05;;;;;;;6.25;4.10;;;18.80;67.40;;;;;;5020690;28;20036;-73
2022/08/20 04:43:15;;;;;;;5.80;4.07;;;18.80;67.40;;;;;;5022796;28;20040;-74
2022/08/20 04:45:40;;;;;;;4.28;3.88;;;18.90;67.40;;;;;;5006052;28;20041;-74
2022/08/20 04:48:06;;;;;;;5.53;3.80;;;18.80;67.30;;;;;;5019186;28;20041;-74
2022/08/20 04:50:35;;;;;;;6.25;4.22;;;18.90;67.30;;;;;;5003916;28;20036;-74
2022/08/20 04:53:05;;;;;;;7.47;4.28;;;18.90;67.30;;;;;;5006418;28;20037;-74
2022/08/20 04:55:32;;;;;;;5.70;4.20;;;18.90;67.30;;;;;;5005823;28;20124;-73
2022/08/20 04:58:04;;;;;;;4.43;4.03;;;18.90;67.30;;;;;;5021671;28;20036;-75
2022/08/20 05:00:30;;;;;;;5.70;4.63;;;18.90;67.40;;;;;;5012527;28;20059;-74
2022/08/20 05:02:56;;;;;;;5.57;5.03;;;18.90;68.10;;;;;;5011826;28;20040;-73
2022/08/20 05:05:21;;;;;;;4.63;4.20;;;18.90;67.50;;;;;;4991843;28;20758;-74
2022/08/20 05:07:47;;;;;;;8.40;4.43;;;18.90;67.50;;;;;;5021267;28;20118;-74
2022/08/20 05:10:13;;;;;;;5.63;4.00;;;18.90;67.50;;;;;;5004710;28;20045;-72
2022/08/20 05:12:40;;;;;;;8.82;4.60;;;19.00;67.50;;;;;;5004978;28;20746;-71
2022/08/20 05:15:06;;;;;;;8.02;4.78;;;18.90;67.30;;;;;;5020723;28;20029;-71
2022/08/20 05:17:31;;;;;;;7.75;4.68;;;19.00;67.50;;;;;;5020447;28;20532;-72
2022/08/20 05:20:00;;;;;;;4.25;3.78;;;19.00;67.50;;;;;;5035198;28;20037;-72
2022/08/20 05:22:26;;;;;;;5.30;4.80;;;19.00;67.60;;;;;;5017713;28;20044;-71
2022/08/20 05:24:52;;;;;;;9.07;4.75;;;19.00;67.50;;;;;;5036751;28;20043;-71
2022/08/20 05:27:18;;;;;;;9.38;4.95;;;19.00;67.70;;;;;;4987226;28;20420;-70
2022/08/20 05:29:44;;;;;;;6.95;4.20;;;19.00;67.90;;;;;;5003431;28;20035;-71
2022/08/20 05:32:11;;;;;;;6.65;4.05;;;19.10;68.00;;;;;;5020722;28;20548;-71
2022/08/20 05:34:36;;;;;;;6.85;4.35;;;19.10;68.00;;;;;;5038236;28;20523;-71
2022/08/20 05:37:03;;;;;;;6.80;4.20;;;19.10;67.90;;;;;;5003040;28;20060;-71
2022/08/20 05:39:28;;;;;;;4.63;3.78;;;19.10;68.90;;;;;;5023147;28;20736;-71
2022/08/20 05:41:54;;;;;;;4.85;4.40;;;19.20;68.00;;;;;;4989280;28;20037;-71
2022/08/20 05:44:19;;;;;;;4.68;4.28;;;19.10;67.90;;;;;;4994506;28;20808;-71
2022/08/20 05:46:45;;;;;;;5.63;3.78;;;19.20;68.10;;;;;;5017512;28;20041;-70
2022/08/20 05:49:21;;;;;;;4.60;4.20;;;19.30;68.00;;;;;;5006037;28;20048;-72
2022/08/20 05:51:47;;;;;;;5.40;3.88;;;19.30;67.70;;;;;;5004587;28;20040;-71
2022/08/20 05:54:13;;;;;;;4.22;3.83;;;19.30;67.50;;;;;;5006290;28;20037;-71
2022/08/20 05:56:38;;;;;;;5.22;4.07;;;19.40;67.60;;;;;;5003446;28;20498;-70
2022/08/20 05:59:05;;;;;;;3.95;3.55;;;19.40;67.50;;;;;;4988275;28;20037;-71
2022/08/20 06:01:31;;;;;;;4.75;4.10;;;19.40;67.30;;;;;;4994050;28;20025;-72
2022/08/20 06:06:41;;;;;;;6.20;4.25;;;19.50;67.10;;;;;;5035987;28;20187;-72
2022/08/20 06:09:07;;;;;;;6.32;4.05;;;19.60;67.40;;;;;;5015406;28;20063;-72
2022/08/20 06:11:32;;;;;;;6.20;4.28;;;19.60;67.40;;;;;;4980248;28;20030;-71
2022/08/20 06:13:58;;;;;;;5.38;4.65;;;19.60;67.30;;;;;;4983738;28;20653;-70
2022/08/20 06:16:24;;;;;;;4.50;4.10;;;19.70;67.40;;;;;;4996276;28;20820;-71
2022/08/20 06:18:49;;;;;;;5.00;4.50;;;19.80;67.40;;;;;;4986362;28;20044;-72
2022/08/20 06:21:15;;;;;;;5.15;4.45;;;19.80;67.40;;;;;;5000086;28;20148;-74
2022/08/20 06:23:41;;;;;;;4.93;4.38;;;19.90;67.40;;;;;;5015850;28;20053;-74
2022/08/20 06:26:08;;;;;;;6.35;4.30;;;20.00;67.40;;;;;;5016969;28;20037;-74
2022/08/20 06:28:36;;;;;;;5.18;4.65;;;20.00;67.20;;;;;;4996762;28;20034;-74
2022/08/20 06:31:02;;;;;;;6.25;3.95;;;20.00;67.10;;;;;;5013451;28;20038;-75
2022/08/20 06:33:27;;;;;;;5.40;4.90;;;20.10;67.20;;;;;;5001606;28;20599;-75
2022/08/20 06:35:54;;;;;;;5.40;4.25;;;20.20;67.40;;;;;;5020216;28;20037;-74
2022/08/20 06:38:19;;;;;;;6.20;4.78;;;20.20;67.30;;;;;;5022427;28;20128;-73
2022/08/20 06:40:45;;;;;;;4.82;4.30;;;20.30;67.10;;;;;;5017646;28;20640;-75
2022/08/20 06:43:10;;;;;;;7.72;4.53;;;20.40;67.00;;;;;;5020608;28;20049;-73
2022/08/20 06:45:37;;;;;;;8.75;4.75;;;20.40;66.80;;;;;;5001296;28;20540;-75
2022/08/20 06:48:08;;;;;;;7.18;4.57;;;20.50;67.00;;;;;;5020496;28;20043;-74
2022/08/20 06:50:38;;;;;;;9.55;3.90;;;20.60;67.00;;;;;;4995533;28;20076;-74
2022/08/20 06:53:07;;;;;;;10.18;4.63;;;20.70;66.80;;;;;;5005412;28;20568;-75
2022/08/20 06:55:33;;;;;;;5.47;3.65;;;20.80;66.90;;;;;;5011906;28;20029;-73
2022/08/20 06:58:00;;;;;;;6.75;4.10;;;20.90;67.00;;;;;;5002363;28;20045;-74
2022/08/20 07:00:25;;;;;;;4.10;3.47;;;21.00;67.00;;;;;;4988133;28;20433;-74
2022/08/20 07:02:51;;;;;;;4.68;3.70;;;21.10;66.90;;;;;;5003571;28;20049;-75
2022/08/20 07:05:16;;;;;;;3.95;3.42;;;21.20;66.80;;;;;;5019793;28;20034;-75
2022/08/20 07:07:46;;;;;;;5.05;3.42;;;21.20;66.70;;;;;;5001230;28;20034;-74
2022/08/20 07:10:15;;;;;;;6.60;3.55;;;21.30;66.70;;;;;;5004175;28;20037;-73
2022/08/20 07:12:41;;;;;;;7.93;4.43;;;21.40;66.60;;;;;;5006083;28;20065;-73
2022/08/20 07:15:08;;;;;;;4.40;3.50;;;21.50;66.60;;;;;;5022724;28;20068;-74
2022/08/20 07:17:34;;;;;;;6.00;3.90;;;21.50;66.40;;;;;;5004455;28;20040;-73
2022/08/20 07:20:05;;;;;;;10.27;3.67;;;21.60;66.30;;;;;;5023539;28;20037;-74
2022/08/20 07:22:34;;;;;;;11.50;3.92;;;21.70;66.30;;;;;;5038737;28;20033;-74
2022/08/20 07:25:00;;;;;;;7.47;3.75;;;21.70;66.00;;;;;;5022426;28;20067;-74
2022/08/20 07:27:25;;;;;;;6.82;3.40;;;21.80;66.10;;;;;;5038557;28;20069;-73
2022/08/20 07:32:35;;;;;;;8.63;3.60;;;21.90;66.00;;;;;;5023125;28;20036;-76
2022/08/20 07:35:06;;;;;;;8.35;3.83;;;21.90;65.90;;;;;;5039558;28;20041;-73
2022/08/20 07:37:38;;;;;;;8.10;3.42;;;22.00;66.00;;;;;;5005984;28;20041;-75
2022/08/20 07:40:04;;;;;;;4.20;3.53;;;22.00;65.80;;;;;;5007501;28;20049;-74
2022/08/20 07:42:30;;;;;;;6.15;3.45;;;22.10;65.70;;;;;;5011339;28;20044;-74
2022/08/20 07:44:56;;;;;;;4.43;3.85;;;22.10;65.60;;;;;;5021322;28;20041;-73
2022/08/20 07:47:22;;;;;;;5.45;3.78;;;22.20;65.50;;;;;;5040259;28;20052;-74
2022/08/20 07:49:47;;;;;;;4.40;4.00;;;22.20;65.30;;;;;;5006808;28;20134;-74
2022/08/20 07:52:14;;;;;;;80.80;9.73;;;22.30;65.20;;;;;;5023551;28;20401;-74
2022/08/20 07:54:40;;;;;;;11.95;4.53;;;22.40;65.20;;;;;;5021347;28;20041;-73
2022/08/20 07:57:05;;;;;;;12.88;4.07;;;22.40;65.00;;;;;;5005965;28;20491;-73
2022/08/20 07:59:31;;;;;;;6.85;4.50;;;22.50;65.00;;;;;;5040152;28;20029;-75
2022/08/20 08:01:57;;;;;;;7.47;4.10;;;22.60;64.90;;;;;;5018524;28;20047;-74
2022/08/20 08:04:23;;;;;;;8.27;4.50;;;22.70;64.70;;;;;;5023971;28;20033;-75
2022/08/20 08:06:49;;;;;;;6.28;4.00;;;22.70;64.50;;;;;;5022758;28;20108;-75
2022/08/20 08:09:15;;;;;;;6.97;4.32;;;22.80;64.30;;;;;;5011991;28;20086;-73
2022/08/20 08:11:43;;;;;;;6.43;3.75;;;22.90;64.30;;;;;;5001997;28;20705;-75
2022/08/20 08:14:09;;;;;;;7.28;4.45;;;22.90;64.20;;;;;;5024199;28;20029;-75
2022/08/20 08:16:35;;;;;;;5.10;4.40;;;23.00;63.90;;;;;;4988919;28;20033;-73
2022/08/20 08:19:00;;;;;;;10.10;4.55;;;23.00;63.80;;;;;;5005171;28;20044;-74
2022/08/20 08:21:26;;;;;;;7.50;5.80;;;23.10;63.70;;;;;;5018423;28;20047;-74
2022/08/20 08:23:52;;;;;;;6.80;4.88;;;23.20;63.70;;;;;;5005283;28;20035;-75
2022/08/20 08:26:18;;;;;;;10.07;5.60;;;23.20;63.70;;;;;;5005405;28;20041;-74
2022/08/20 08:28:43;;;;;;;7.93;5.07;;;23.20;63.70;;;;;;5038048;28;20029;-75
2022/08/20 08:31:09;;;;;;;7.28;5.15;;;23.30;63.80;;;;;;5023065;28;20025;-74
2022/08/20 08:33:35;;;;;;;5.32;4.82;;;23.30;63.70;;;;;;5036287;28;20071;-74
2022/08/20 08:36:03;;;;;;;6.80;5.35;;;23.40;63.70;;;;;;5019727;28;20044;-74
2022/08/20 08:38:30;;;;;;;9.52;5.45;;;23.50;63.70;;;;;;5017740;28;20120;-73
2022/08/20 08:40:56;;;;;;;5.25;4.75;;;23.50;63.70;;;;;;5005971;28;20033;-74
2022/08/20 08:43:24;;;;;;;5.43;4.40;;;23.50;63.60;;;;;;5020124;28;20068;-75
2022/08/20 08:45:55;;;;;;;5.85;4.28;;;23.60;63.50;;;;;;4996422;28;20109;-74
2022/08/20 08:48:20;;;;;;;10.35;4.88;;;23.60;63.30;;;;;;4980662;28;20040;-73
2022/08/20 08:50:49;;;;;;;5.93;4.10;;;23.80;63.20;;;;;;5004703;28;20040;-74
2022/08/20 08:53:18;;;;;;;4.45;3.95;;;23.80;63.00;;;;;;5005129;28;20037;-74
2022/08/20 08:55:44;;;;;;;3.97;3.67;;;23.90;63.10;;;;;;5004198;28;20485;-74
2022/08/20 08:58:09;;;;;;;5.03;3.90;;;23.90;62.80;;;;;;4986680;28;20147;-75
2022/08/20 09:00:35;;;;;;;6.40;3.80;;;23.90;62.60;;;;;;5019992;28;20074;-74
2022/08/20 09:03:08;;;;;;;3.63;3.30;;;24.00;62.60;;;;;;5001293;28;20090;-75
2022/08/20 09:05:47;;;;;;;4.25;3.33;;;23.90;62.40;;;;;;5019684;28;20029;-73
2022/08/20 09:08:14;;;;;;;3.78;3.25;;;23.90;62.30;;;;;;5021701;28;20118;-75
2022/08/20 09:10:39;;;;;;;5.00;3.95;;;23.90;62.30;;;;;;5000893;28;20190;-74
2022/08/20 09:13:05;;;;;;;4.78;3.17;;;23.90;62.20;;;;;;5006721;28;20666;-74
2022/08/20 09:15:31;;;;;;;4.55;3.83;;;23.90;62.10;;;;;;5000353;28;20079;-74
2022/08/20 09:17:56;;;;;;;10.55;4.07;;;24.00;62.10;;;;;;5003109;28;20044;-74
2022/08/20 09:20:22;;;;;;;4.70;4.30;;;24.10;61.90;;;;;;5004519;28;20044;-75
2022/08/20 09:22:48;;;;;;;5.57;4.13;;;24.20;61.80;;;;;;5021228;28;20039;-74
2022/08/20 09:25:13;;;;;;;3.85;3.55;;;24.20;61.70;;;;;;5037135;28;20045;-75
2022/08/20 09:27:39;;;;;;;4.68;3.75;;;24.20;61.60;;;;;;5037890;28;20087;-74
2022/08/20 09:30:05;;;;;;;4.90;3.80;;;24.30;61.50;;;;;;5018294;28;20076;-73
2022/08/20 09:32:30;;;;;;;4.57;3.33;;;24.30;61.40;;;;;;5015788;28;20047;-73
2022/08/20 09:34:57;;;;;;;13.90;4.55;;;24.50;61.30;;;;;;4988724;28;20037;-74
2022/08/20 09:37:24;;;;;;;4.25;3.72;;;24.60;61.10;;;;;;5018830;28;20041;-74
2022/08/20 09:39:49;;;;;;;4.00;3.70;;;24.80;60.90;;;;;;5002120;28;20039;-75
2022/08/20 09:42:29;;;;;;;4.78;3.75;;;24.80;60.60;;;;;;5018944;28;20037;-74
2022/08/20 09:44:55;;;;;;;3.70;3.38;;;24.90;61.10;;;;;;5019167;28;20127;-73
2022/08/20 09:47:21;;;;;;;4.53;3.28;;;25.10;60.30;;;;;;4989854;28;20112;-74
2022/08/20 09:49:46;;;;;;;5.93;3.88;;;25.30;60.10;;;;;;5018527;28;20551;-73
2022/08/20 09:52:25;;;;;;;3.78;3.47;;;25.50;59.80;;;;;;5016939;28;20060;-74
2022/08/20 09:54:51;;;;;;;5.20;3.45;;;25.70;59.40;;;;;;5017767;28;20033;-75
2022/08/20 09:57:17;;;;;;;4.60;3.25;;;25.80;59.30;;;;;;5004014;28;20052;-75
2022/08/20 09:59:42;;;;;;;4.47;3.72;;;25.80;59.70;;;;;;5008345;28;20041;-74
2022/08/20 10:02:08;;;;;;;6.70;2.92;;;25.90;58.90;;;;;;4991039;28;20056;-75
2022/08/20 10:04:33;;;;;;;8.70;4.15;;;26.00;58.70;;;;;;5019853;28;20029;-74
2022/08/20 10:06:59;;;;;;;8.43;5.45;;;26.10;58.50;;;;;;5023840;28;20112;-75
2022/08/20 10:09:24;;;;;;;11.95;5.78;;;26.20;58.20;;;;;;5025539;28;20021;-75
2022/08/20 10:11:50;;;;;;;11.93;4.40;;;26.20;58.00;;;;;;5025994;28;20038;-75
2022/08/20 10:14:15;;;;;;;7.72;4.15;;;26.20;57.80;;;;;;5021478;28;20398;-74
2022/08/20 10:16:41;;;;;;;10.30;3.75;;;26.30;57.60;;;;;;5009603;28;20116;-74
2022/08/20 10:19:06;;;;;;;3.85;3.25;;;26.30;57.50;;;;;;5024454;28;20664;-75
2022/08/20 10:21:32;;;;;;;5.13;3.58;;;26.40;57.50;;;;;;5023766;28;20033;-73
2022/08/20 10:23:58;;;;;;;4.07;3.47;;;26.40;57.40;;;;;;5023955;28;20037;-74
2022/08/20 10:26:23;;;;;;;4.30;3.60;;;26.50;57.20;;;;;;5025599;28;20032;-74
2022/08/20 10:28:49;;;;;;;3.88;3.22;;;26.50;57.00;;;;;;5024555;28;21019;-74
2022/08/20 10:31:14;;;;;;;3.90;3.47;;;26.50;56.80;;;;;;5022401;28;20056;-74
2022/08/20 10:33:40;;;;;;;2.92;2.72;;;26.60;56.70;;;;;;5024205;28;20032;-73
2022/08/20 10:36:07;;;;;;;4.93;3.65;;;26.60;56.50;;;;;;5007579;28;20625;-73
2022/08/20 10:38:33;;;;;;;3.97;3.28;;;26.60;56.50;;;;;;4991041;28;20554;-73
2022/08/20 10:40:58;;;;;;;3.47;2.80;;;26.60;56.70;;;;;;5038504;28;20045;-74
2022/08/20 10:43:24;;;;;;;8.48;3.63;;;26.50;56.90;;;;;;5040129;28;20032;-74
2022/08/20 10:45:50;;;;;;;2.75;2.55;;;26.40;57.10;;;;;;5043743;28;20036;-73
2022/08/20 10:48:15;;;;;;;4.20;2.92;;;26.40;57.40;;;;;;5042789;28;20601;-73
2022/08/20 10:50:41;;;;;;;3.85;3.00;;;26.40;57.60;;;;;;5024055;28;20146;-73
2022/08/20 10:53:06;;;;;;;4.97;2.65;;;26.40;58.00;;;;;;5021076;28;20945;-75
2022/08/20 10:55:32;;;;;;;3.25;2.92;;;26.40;58.10;;;;;;4991301;28;20032;-75
2022/08/20 10:57:57;;;;;;;3.08;2.78;;;26.40;58.20;;;;;;5046865;28;20056;-76
2022/08/20 11:00:23;;;;;;;3.03;2.78;;;26.40;58.30;;;;;;5027339;28;20044;-75
2022/08/20 11:02:48;;;;;;;5.72;3.50;;;26.30;58.60;;;;;;4996991;28;20044;-74
2022/08/20 11:05:14;;;;;;;13.50;4.22;;;26.30;58.90;;;;;;5042005;28;20037;-74
2022/08/20 11:07:41;;;;;;;8.73;3.33;;;26.20;59.00;;;;;;5042601;28;21127;-73
2022/08/20 11:10:07;;;;;;;3.67;3.35;;;26.20;59.10;;;;;;5025753;28;20068;-75
2022/08/20 11:12:32;;;;;;;5.22;2.80;;;26.30;59.30;;;;;;5027031;28;20374;-74
2022/08/20 11:14:58;;;;;;;3.42;2.97;;;26.30;59.50;;;;;;5009973;28;20784;-74
2022/08/20 11:17:26;;;;;;;6.32;3.33;;;26.40;59.50;;;;;;4993115;28;20570;-74
2022/08/20 11:19:52;;;;;;;3.75;3.30;;;26.60;59.50;;;;;;5024084;28;20048;-74
2022/08/20 11:22:17;;;;;;;2.63;2.42;;;26.80;59.30;;;;;;5025665;28;20033;-74
2022/08/20 11:24:43;;;;;;;2.92;2.67;;;27.00;59.00;;;;;;5011746;28;20116;-75
2022/08/20 11:27:09;;;;;;;6.18;2.60;;;27.20;58.50;;;;;;5026671;28;20040;-74
2022/08/20 11:29:35;;;;;;;3.00;2.70;;;27.40;58.00;;;;;;5007144;28;20037;-74
2022/08/20 11:32:01;;;;;;;3.20;2.90;;;27.60;57.50;;;;;;5007559;28;20670;-74
2022/08/20 11:34:26;;;;;;;2.70;2.50;;;27.70;57.10;;;;;;5025741;28;20053;-75
2022/08/20 11:36:53;;;;;;;4.28;2.58;;;27.90;56.70;;;;;;5041774;28;20124;-75
2022/08/20 11:39:19;;;;;;;3.97;2.72;;;28.00;56.30;;;;;;5007988;28;20711;-74
2022/08/20 11:41:44;;;;;;;2.72;2.53;;;28.30;56.00;;;;;;5025260;28;20107;-76
2022/08/20 11:44:10;;;;;;;4.47;3.20;;;28.50;55.70;;;;;;5027472;28;20614;-75
2022/08/20 11:46:35;;;;;;;3.45;3.00;;;28.70;55.30;;;;;;5023386;28;20025;-75
2022/08/20 11:49:01;;;;;;;3.28;2.97;;;28.80;55.00;;;;;;5009962;28;20123;-74
2022/08/20 11:51:27;;;;;;;4.38;3.15;;;28.90;54.60;;;;;;5010682;28;20037;-74
2022/08/20 11:53:52;;;;;;;2.95;2.75;;;29.10;54.20;;;;;;5025180;28;20401;-75
2022/08/20 11:56:19;;;;;;;2.70;2.50;;;29.30;53.70;;;;;;5026956;28;20530;-74
2022/08/20 11:58:45;;;;;;;3.25;3.03;;;29.30;53.30;;;;;;5024816;28;20029;-75
2022/08/20 12:01:10;;;;;;;3.33;3.03;;;29.30;53.00;;;;;;5010397;28;20111;-74
2022/08/20 12:03:36;;;;;;;3.67;2.78;;;29.30;52.80;;;;;;5026811;28;20116;-74
2022/08/20 12:06:01;;;;;;;3.08;2.35;;;29.30;52.80;;;;;;5025288;28;20079;-74
2022/08/20 12:08:28;;;;;;;2.92;2.63;;;29.30;52.60;;;;;;5021196;28;20045;-75
2022/08/20 12:10:58;;;;;;;3.20;2.47;;;29.30;53.20;;;;;;5024312;28;20097;-75
2022/08/20 12:13:24;;;;;;;3.45;2.22;;;29.20;52.40;;;;;;5023160;28;20090;-76
2022/08/20 12:15:51;;;;;;;3.50;2.70;;;29.20;52.40;;;;;;5007360;28;20033;-74
2022/08/20 12:18:16;;;;;;;3.10;2.47;;;29.20;52.30;;;;;;4992278;28;20141;-75
2022/08/20 12:20:42;;;;;;;2.92;2.55;;;29.20;52.00;;;;;;5002857;28;20741;-75
2022/08/20 12:23:07;;;;;;;3.03;2.20;;;29.10;51.70;;;;;;5025202;28;20480;-74
2022/08/20 12:25:33;;;;;;;3.92;2.13;;;29.10;51.60;;;;;;5022669;28;20497;-75
2022/08/20 12:27:59;;;;;;;2.72;2.50;;;29.10;51.50;;;;;;5008605;28;20136;-75
2022/08/20 12:30:25;;;;;;;2.70;2.20;;;29.10;51.40;;;;;;5023499;28;20052;-75
2022/08/20 12:32:50;;;;;;;5.35;2.85;;;29.10;51.30;;;;;;4992332;28;20029;-75
2022/08/20 12:35:16;;;;;;;2.90;2.70;;;29.10;51.30;;;;;;4991661;28;20127;-75
2022/08/20 12:37:42;;;;;;;2.90;2.70;;;29.00;51.00;;;;;;5026391;28;20053;-74
2022/08/20 12:40:11;;;;;;;3.20;2.70;;;29.00;51.00;;;;;;5021736;28;20095;-75
2022/08/20 12:42:37;;;;;;;3.50;2.47;;;29.00;50.90;;;;;;5024721;28;20033;-74
2022/08/20 12:45:03;;;;;;;2.92;2.58;;;28.80;50.90;;;;;;5005175;28;20033;-73
2022/08/20 12:47:30;;;;;;;2.97;2.75;;;28.80;50.90;;;;;;5008273;28;20726;-75
2022/08/20 12:50:00;;;;;;;2.15;2.00;;;28.80;50.70;;;;;;5014888;28;20041;-74